createdAt,value
2017-05-28T14:44:51.364Z,19.80
2017-05-28T14:47:18.577Z,19.90
2017-05-28T14:49:46.020Z,19.80
2017-05-28T14:52:13.237Z,20.90
2017-05-28T14:54:40.462Z,20.80
2017-05-28T14:57:07.620Z,21.70
2017-05-28T14:59:34.836Z,20.40
2017-05-28T15:02:02.082Z,22.30
2017-05-28T15:04:29.343Z,20.10
2017-05-28T15:06:57.460Z,20.30
2017-05-28T15:09:24.638Z,19.00
2017-05-28T15:11:52.016Z,20.10
2017-05-28T15:14:19.228Z,19.40
2017-05-28T15:16:46.520Z,20.90
2017-05-28T15:19:14.079Z,20.00
2017-05-28T15:21:41.388Z,20.50
2017-05-28T15:24:08.640Z,20.20
2017-05-28T15:26:35.919Z,20.40
2017-05-28T15:29:03.104Z,22.00
2017-05-28T15:31:30.305Z,22.50
2017-05-28T15:33:57.576Z,22.40
2017-05-28T15:36:24.781Z,22.90
2017-05-28T15:38:52.865Z,24.60
2017-05-28T15:41:20.105Z,24.30
2017-05-28T15:43:47.329Z,25.20
2017-05-28T15:46:14.516Z,24.50
2017-05-28T15:48:41.780Z,24.50
2017-05-28T15:51:09.015Z,25.60
2017-05-28T15:53:36.549Z,26.40
2017-05-28T15:56:03.798Z,29.30
2017-05-28T15:58:30.979Z,33.00
2017-05-28T16:00:58.192Z,32.30
2017-05-28T16:03:25.399Z,33.70
2017-05-28T16:05:53.879Z,37.10
2017-05-28T16:08:21.089Z,34.40
2017-05-28T16:10:48.440Z,34.70
2017-05-28T16:13:15.946Z,33.30
2017-05-28T16:15:43.152Z,35.60
2017-05-28T16:18:10.430Z,36.00
2017-05-28T16:20:37.679Z,39.30
2017-05-28T16:23:04.889Z,37.60
2017-05-28T16:25:32.149Z,39.50
2017-05-28T16:27:59.329Z,37.90
2017-05-28T16:30:26.531Z,40.70
2017-05-28T16:32:53.997Z,38.50
2017-05-28T16:35:21.283Z,38.50
2017-05-28T16:37:48.749Z,37.50
2017-05-28T16:40:16.077Z,37.40
2017-05-28T16:42:43.304Z,37.60
2017-05-28T16:45:10.562Z,39.80
2017-05-28T16:47:37.801Z,37.70
2017-05-28T16:50:05.013Z,37.70
2017-05-28T16:52:32.391Z,38.00
2017-05-28T16:54:59.629Z,39.00
2017-05-28T16:57:26.874Z,39.30
2017-05-28T16:59:54.161Z,40.10
2017-05-28T17:02:21.322Z,38.50
2017-05-28T17:04:48.699Z,38.10
2017-05-28T17:07:15.956Z,39.70
2017-05-28T17:09:43.159Z,39.40
2017-05-28T17:12:10.437Z,42.00
2017-05-28T17:14:37.609Z,41.80
2017-05-28T17:17:04.872Z,42.40
2017-05-28T17:19:32.142Z,41.20
2017-05-28T17:21:59.389Z,40.60
2017-05-28T17:24:27.274Z,40.00
2017-05-28T17:26:54.545Z,41.10
2017-05-28T17:29:21.779Z,41.00
2017-05-28T17:31:49.209Z,40.90
2017-05-28T17:34:16.458Z,41.30
2017-05-28T17:36:43.672Z,42.20
2017-05-28T17:39:10.914Z,41.60
2017-05-28T17:41:38.143Z,42.60
2017-05-28T17:44:05.393Z,42.60
2017-05-28T17:46:32.732Z,42.00
2017-05-28T17:49:00.043Z,41.60
2017-05-28T17:51:27.304Z,41.60
2017-05-28T17:53:54.539Z,41.90
2017-05-28T17:56:21.711Z,42.50
2017-05-28T17:58:49.195Z,43.60
2017-05-28T18:01:16.392Z,43.70
2017-05-28T18:03:43.620Z,43.80
2017-05-28T18:06:10.828Z,44.60
2017-05-28T18:08:38.109Z,44.90
2017-05-28T18:11:05.316Z,45.30
2017-05-28T18:13:32.573Z,45.40
2017-05-28T18:15:59.891Z,44.70
2017-05-28T18:18:27.146Z,44.40
2017-05-28T18:20:54.484Z,44.60
2017-05-28T18:23:21.755Z,44.90
2017-05-28T18:25:49.030Z,44.30
2017-05-28T18:28:16.268Z,44.40
2017-05-28T18:30:43.516Z,44.20
2017-05-28T18:33:10.946Z,44.60
2017-05-28T18:35:38.145Z,44.60
2017-05-28T18:38:05.415Z,44.60
2017-05-28T18:40:32.691Z,45.10
2017-05-28T18:42:59.877Z,45.40
2017-05-28T18:45:27.908Z,45.60
2017-05-28T18:47:55.129Z,45.90
2017-05-28T18:50:22.503Z,46.60
2017-05-28T18:52:49.718Z,46.40
2017-05-28T18:55:17.068Z,45.60
2017-05-28T18:57:44.603Z,46.40
2017-05-28T19:00:11.780Z,45.80
2017-05-28T19:02:38.949Z,46.50
2017-05-28T19:05:06.250Z,46.80
2017-05-28T19:07:33.467Z,47.80
2017-05-28T19:10:00.664Z,49.00
2017-05-28T19:12:27.917Z,49.20
2017-05-28T19:14:55.116Z,48.40
2017-05-28T19:17:22.521Z,50.40
2017-05-28T19:19:49.724Z,51.40
2017-05-28T19:22:16.948Z,52.50
2017-05-28T19:24:44.370Z,53.40
2017-05-28T19:27:11.626Z,51.30
2017-05-28T19:29:38.802Z,51.40
2017-05-28T19:32:06.101Z,52.90
2017-05-28T19:34:33.390Z,53.80
2017-05-28T19:37:00.632Z,55.80
2017-05-28T19:39:27.905Z,55.90
2017-05-28T19:41:55.091Z,56.30
2017-05-28T19:44:22.410Z,56.90
2017-05-28T19:46:49.671Z,57.00
2017-05-28T19:49:16.935Z,57.50
2017-05-28T19:51:44.209Z,59.00
2017-05-28T19:54:11.480Z,59.50
2017-05-28T19:56:38.794Z,59.80
2017-05-28T19:59:06.104Z,61.80
2017-05-28T20:01:33.391Z,63.00
2017-05-28T20:04:00.656Z,64.30
2017-05-28T20:06:27.929Z,65.10
2017-05-28T20:08:55.293Z,65.80
2017-05-28T20:11:22.637Z,66.90
2017-05-28T20:13:49.915Z,68.30
2017-05-28T20:16:17.085Z,68.40
2017-05-28T20:18:44.487Z,68.60
2017-05-28T20:21:11.692Z,68.70
2017-05-28T20:23:38.936Z,69.20
2017-05-28T20:26:06.156Z,69.70
2017-05-28T20:28:33.435Z,69.80
2017-05-28T20:31:00.707Z,70.20
2017-05-28T20:33:27.936Z,70.50
2017-05-28T20:35:54.518Z,71.30
2017-05-28T20:38:21.815Z,70.90
2017-05-28T20:40:49.115Z,71.30
2017-05-28T20:43:15.667Z,71.50
2017-05-28T20:45:42.950Z,72.40
2017-05-28T20:48:09.533Z,72.40
2017-05-28T20:50:36.792Z,73.00
2017-05-28T20:53:04.123Z,74.00
2017-05-28T20:55:31.441Z,73.30
2017-05-28T20:57:58.187Z,73.30
2017-05-28T21:00:24.783Z,73.10
2017-05-28T21:02:51.397Z,73.80
2017-05-28T21:05:17.952Z,75.20
2017-05-28T21:07:45.195Z,75.60
2017-05-28T21:10:12.514Z,75.00
2017-05-28T21:12:39.057Z,74.90
2017-05-28T21:15:06.539Z,75.30
2017-05-28T21:17:33.784Z,75.40
2017-05-28T21:20:00.991Z,74.60
2017-05-28T21:22:28.227Z,74.70
2017-05-28T21:24:55.456Z,74.90
2017-05-28T21:27:22.645Z,75.00
2017-05-28T21:29:49.913Z,76.20
2017-05-28T21:32:17.134Z,76.20
2017-05-28T21:34:44.396Z,76.10
2017-05-28T21:37:11.628Z,76.60
2017-05-28T21:39:38.827Z,77.00
2017-05-28T21:42:06.442Z,77.60
2017-05-28T21:44:33.647Z,77.80
2017-05-28T21:47:00.822Z,77.50
2017-05-28T21:49:28.278Z,78.40
2017-05-28T21:51:55.483Z,79.50
2017-05-28T21:54:22.773Z,79.30
2017-05-28T21:56:50.028Z,79.80
2017-05-28T21:59:17.225Z,81.00
2017-05-28T22:01:44.399Z,80.60
2017-05-28T22:04:11.717Z,80.90
2017-05-28T22:06:38.922Z,80.40
2017-05-28T22:09:06.162Z,79.90
2017-05-28T22:11:33.444Z,81.10
2017-05-28T22:14:00.636Z,80.40
2017-05-28T22:16:27.819Z,80.20
2017-05-28T22:18:55.077Z,80.80
2017-05-28T22:21:22.368Z,81.70
2017-05-28T22:23:49.646Z,82.20
2017-05-28T22:26:16.850Z,82.00
2017-05-28T22:28:44.097Z,82.50
2017-05-28T22:31:11.360Z,82.60
2017-05-28T22:33:38.553Z,82.60
2017-05-28T22:36:05.728Z,83.00
2017-05-28T22:38:32.980Z,84.10
2017-05-28T22:41:00.191Z,84.10
2017-05-28T22:43:27.409Z,84.40
2017-05-28T22:45:54.772Z,85.00
2017-05-28T22:48:21.952Z,84.80
2017-05-28T22:50:49.167Z,86.20
2017-05-28T22:53:16.405Z,85.80
2017-05-28T22:55:43.568Z,86.30
2017-05-28T22:58:10.860Z,85.40
2017-05-28T23:00:38.064Z,85.50
2017-05-28T23:03:05.247Z,85.90
2017-05-28T23:05:32.472Z,85.50
2017-05-28T23:07:59.695Z,85.40
2017-05-28T23:10:26.928Z,85.10
2017-05-28T23:12:54.221Z,85.60
2017-05-28T23:15:21.399Z,85.80
2017-05-28T23:17:48.755Z,85.70
2017-05-28T23:20:15.981Z,86.00
2017-05-28T23:22:43.139Z,85.40
2017-05-28T23:25:10.368Z,85.10
2017-05-28T23:27:37.566Z,84.80
2017-05-28T23:30:04.774Z,84.70
2017-05-28T23:32:32.223Z,84.40
2017-05-28T23:34:59.456Z,84.70
2017-05-28T23:37:26.688Z,84.20
2017-05-28T23:39:53.972Z,84.10
2017-05-28T23:42:21.176Z,84.60
2017-05-28T23:44:48.499Z,84.30
2017-05-28T23:47:15.776Z,84.60
2017-05-28T23:49:42.995Z,85.30
2017-05-28T23:52:10.300Z,84.90
2017-05-28T23:54:37.480Z,85.40
2017-05-28T23:57:04.725Z,86.20
2017-05-28T23:59:31.963Z,86.10
